Ulladulla, New South Wales

9:04 AM AEDT on February 08, 2016 (GMT +1100)
Kings Point Industrial | | Change Station
CLOSE
Current Station
Personal Weather Station
Location: Ulladulla, NEW SOUTH WALES
Elevation: 85 ft
Nearby Weather Stations

Elev 85 ft 35.37 °S, 150.46 °E | Updated 18 seconds ago

Clear
Clear
82.0 °F
Feels Like 83 °F
N
5.3
Wind Variable Wind from SSE
Gusts 5.8 mph

Today
High -- | Low -- °F
--% Chance of Precip.
Yesterday
High -- | Low -- °F
Precip. -- in
Pressure 30.09 in
Visibility -9999.0 miles
Clouds
Heat Index 83 °F
Dew Point 63 °F
Humidity 53%
Rainfall 0.00 in
Snow Depth Not available.
6:23 AM 8:00 PM
Waning Crescent, 1% visible
METAR YSNW 072100Z 31009KT CAVOK 18/16 Q1019 NOSIG
Pressure 30.09 in
Visibility -9999.0 miles
Clouds
Heat Index 83 °F
Dew Point 63 °F
Humidity 53%
Rainfall 0.00 in
Snow Depth Not available.
6:23 AM 8:00 PM
Waning Crescent, 1% visible
METAR YSNW 072100Z 31009KT CAVOK 18/16 Q1019 NOSIG

10-Day Weather Forecast

Almanac

Astronomy

Feb. 08, 2016 Rise Set
Actual Time
Civil Twilight
Nautical Twilight
Astronomical Twilight
Moon
Length of Visible Light
Length of Day
Tomorrow will be .
, % of the Moon is Illuminated

Today's Extremes

Country Highs Country Lows

Community

WunderPhotos

Upload Photos

1,891,304 photos uploaded!

WunderBlog® & News

Nearby

Air Quality

  Air Quality AQ Index Pollutant
Not available.

Snow Depth

Station Depth Elevation

Earthquake Activity

City Distance Mag. Time & Date
Minimum magnitude displayed is 2.5.

Coastal Water Temperatures

Place Temperature

Stations

Nearby Weather Stations

Station Location Temp. Windchill Dew Point Humidity Wind Precip. Elev Updated Type